Thunder radar more information blitzortung!


Radar de pluja more information rain snow radar


Visita la nostra xarxa de llocs de meteo:

Template documentation
and downloads

And another site



No particular awareness of the weather is required.    There are no Weather-warnings

Pagina Historial Weather Underground text

Diari Resum Abril 11, 2016 Unitats:  Mètric    Imperial   Tant
« Previous Dia
SegĂźent Dia »
Diari Setmana Mensual Anual Personalitzada
  Maxima: Minima: Media:
Temperatura: 22.4 °C 10.3 °C 15.8 °C
Punt de rosada: 11.6 °C 4.1 °C 6.5 °C
Humitat: 84 % 35 % 56 %
Wind Speed: 31.5 km/h 0.0 km/h 7.3 km/h
RĂ fegues de vent: 31.5 km/h - -
Vent:- - SW
Pression baro: 1013.8 hPa 1009.0 hPa -
Precipitacions: 0.0 mm    
Historical Graphs
 
 
Dades de taula per Abril 11, 2016
Temps Temperatura Punt de rosada Pression baro Vent Wind Speed RĂ fegues de vent Humitat Rainfall Rate (Hourly)
00:00 11.0 °C 7.5 °C 1010.7 hPa NE 1.6 km/h 3.2 km/h 79 % 0.0 mm
00:10 10.8 °C 7.1 °C 1009.0 hPa NE 3.2 km/h 4.8 km/h 78 % 0.0 mm
00:20 10.7 °C 7.0 °C 1010.0 hPa ENE 1.6 km/h 4.8 km/h 78 % 0.0 mm
00:30 10.6 °C 6.9 °C 1010.0 hPa Calm   3.2 km/h 78 % 0.0 mm
00:40 10.6 °C 7.1 °C 1010.0 hPa Calm   3.2 km/h 79 % 0.0 mm
00:50 10.7 °C 7.6 °C 1010.0 hPa WSW 1.6 km/h 3.2 km/h 81 % 0.0 mm
01:00 10.6 °C 7.1 °C 1010.0 hPa ENE 3.2 km/h 3.2 km/h 79 % 0.0 mm
01:10 10.5 °C 7.4 °C 1010.7 hPa South 1.6 km/h 1.6 km/h 81 % 0.0 mm
01:20 10.5 °C 7.6 °C 1010.0 hPa South 1.6 km/h 3.2 km/h 82 % 0.0 mm
01:30 10.4 °C 7.4 °C 1010.0 hPa ENE 1.6 km/h 3.2 km/h 82 % 0.0 mm
01:50 10.3 °C 7.3 °C 1010.0 hPa NNE 1.6 km/h 3.2 km/h 82 % 0.0 mm
02:00 10.3 °C 7.6 °C 1010.0 hPa Calm   4.8 km/h 83 % 0.0 mm
02:10 10.4 °C 7.6 °C 1010.0 hPa NE 1.6 km/h 1.6 km/h 83 % 0.0 mm
02:20 10.4 °C 7.8 °C 1010.0 hPa Calm   1.6 km/h 84 % 0.0 mm
02:30 10.4 °C 7.6 °C 1010.0 hPa Calm   1.6 km/h 83 % 0.0 mm
02:40 10.5 °C 7.9 °C 1010.0 hPa Calm   1.6 km/h 84 % 0.0 mm
02:50 10.6 °C 7.8 °C 1010.0 hPa ENE 1.6 km/h 3.2 km/h 83 % 0.0 mm
03:00 10.7 °C 8.1 °C 1010.0 hPa North 1.6 km/h 1.6 km/h 84 % 0.0 mm
03:10 10.8 °C 8.2 °C 1010.0 hPa Calm   1.6 km/h 84 % 0.0 mm
03:20 10.8 °C 8.2 °C 1010.7 hPa Calm   1.6 km/h 84 % 0.0 mm
03:30 10.9 °C 8.3 °C 1010.7 hPa ESE 1.6 km/h 3.2 km/h 84 % 0.0 mm
03:40 11.1 °C 8.3 °C 1010.0 hPa ENE 3.2 km/h 6.4 km/h 83 % 0.0 mm
03:50 11.3 °C 8.3 °C 1010.7 hPa Calm   4.8 km/h 82 % 0.0 mm
04:00 11.6 °C 8.4 °C 1010.7 hPa WNW 1.6 km/h 3.2 km/h 81 % 0.0 mm
04:10 11.7 °C 8.7 °C 1010.7 hPa West 1.6 km/h 3.2 km/h 82 % 0.0 mm
04:20 12.0 °C 8.8 °C 1010.7 hPa SW 1.6 km/h 3.2 km/h 81 % 0.0 mm
04:30 12.3 °C 9.1 °C 1010.7 hPa SW 3.2 km/h 3.2 km/h 81 % 0.0 mm
04:40 12.6 °C 9.4 °C 1011.7 hPa SW 1.6 km/h 4.8 km/h 81 % 0.0 mm
04:50 12.9 °C 9.7 °C 1011.7 hPa SSW 1.6 km/h 3.2 km/h 81 % 0.0 mm
05:00 13.1 °C 9.7 °C 1011.7 hPa SSW 1.6 km/h 4.8 km/h 80 % 0.0 mm
05:10 13.6 °C 10.2 °C 1011.7 hPa SW 3.2 km/h 4.8 km/h 80 % 0.0 mm
05:20 14.3 °C 10.9 °C 1010.7 hPa SW 3.2 km/h 4.8 km/h 80 % 0.0 mm
05:30 14.3 °C 10.7 °C 1010.7 hPa SW 4.8 km/h 4.8 km/h 79 % 0.0 mm
05:40 14.9 °C 11.1 °C 1011.7 hPa SW 1.6 km/h 8.0 km/h 78 % 0.0 mm
05:50 15.1 °C 11.3 °C 1011.7 hPa SW 3.2 km/h 4.8 km/h 78 % 0.0 mm
10:52 15.1 °C 11.3 °C 1011.7 hPa SW 5.6 km/h 5.6 km/h 78 % 0.0 mm
10:57 15.9 °C 11.3 °C 1011.7 hPa SW 4.7 km/h 4.7 km/h 74 % 0.0 mm
11:02 16.2 °C 11.6 °C 1010.7 hPa WSW 4.7 km/h 4.7 km/h 74 % 0.0 mm
11:07 16.5 °C 10.8 °C 1010.7 hPa West 5.6 km/h 5.6 km/h 69 % 0.0 mm
11:12 16.8 °C 10.4 °C 1010.7 hPa WSW 5.6 km/h 5.8 km/h 66 % 0.0 mm
11:17 17.2 °C 10.3 °C 1012.8 hPa West 6.9 km/h 6.9 km/h 64 % 0.0 mm
11:22 17.1 °C 9.5 °C 1012.8 hPa West 7.4 km/h 7.4 km/h 61 % 0.0 mm
11:27 17.3 °C 9.9 °C 1012.8 hPa WSW 3.7 km/h 3.7 km/h 62 % 0.0 mm
11:32 17.3 °C 9.9 °C 1011.7 hPa SSW 3.7 km/h 3.7 km/h 62 % 0.0 mm
11:37 17.3 °C 9.9 °C 1011.7 hPa WSW 7.4 km/h 7.4 km/h 62 % 0.0 mm
11:42 17.3 °C 9.9 °C 1011.7 hPa SW 9.3 km/h 9.3 km/h 62 % 0.0 mm
11:47 18.2 °C 9.6 °C 1011.7 hPa South 3.7 km/h 3.7 km/h 57 % 0.0 mm
11:52 18.2 °C 9.6 °C 1011.7 hPa SW 9.5 km/h 9.5 km/h 57 % 0.0 mm
11:57 18.2 °C 9.6 °C 1011.7 hPa ESE 5.3 km/h 5.3 km/h 57 % 0.0 mm
12:12 18.2 °C 9.6 °C 1011.7 hPa WNW 7.4 km/h 7.4 km/h 57 % 0.0 mm
12:17 18.2 °C 9.6 °C 1011.7 hPa SW 13.0 km/h 13.0 km/h 57 % 0.0 mm
12:22 18.2 °C 9.6 °C 1011.7 hPa NNW 7.9 km/h 7.9 km/h 57 % 0.0 mm
12:27 18.2 °C 9.6 °C 1011.7 hPa WSW 9.3 km/h 9.3 km/h 57 % 0.0 mm
12:37 18.2 °C 9.6 °C 1011.7 hPa WSW 3.9 km/h 3.9 km/h 57 % 0.0 mm
12:42 19.7 °C 8.7 °C 1011.7 hPa WNW 7.4 km/h 7.4 km/h 49 % 0.0 mm
12:47 19.6 °C 7.7 °C 1011.7 hPa West 9.3 km/h 9.3 km/h 46 % 0.0 mm
12:52 19.7 °C 8.1 °C 1011.7 hPa SW 7.4 km/h 7.4 km/h 47 % 0.0 mm
12:57 20.0 °C 8.0 °C 1011.7 hPa SW 5.6 km/h 5.6 km/h 46 % 0.0 mm
13:02 20.5 °C 8.5 °C 1010.7 hPa WSW 7.4 km/h 7.4 km/h 46 % 0.0 mm
13:07 20.2 °C 8.2 °C 1010.7 hPa ESE 7.2 km/h 7.2 km/h 46 % 0.0 mm
13:12 20.0 °C 7.7 °C 1010.7 hPa SSE 5.6 km/h 5.6 km/h 45 % 0.0 mm
13:22 19.6 °C 7.7 °C 1010.7 hPa West 6.1 km/h 6.1 km/h 46 % 0.0 mm
13:27 19.1 °C 6.6 °C 1010.7 hPa SSW 7.4 km/h 7.4 km/h 44 % 0.0 mm
13:32 19.0 °C 6.8 °C 1010.7 hPa SSW 5.6 km/h 5.6 km/h 45 % 0.0 mm
13:42 19.5 °C 6.9 °C 1010.7 hPa SSW 3.7 km/h 3.7 km/h 44 % 0.0 mm
13:47 19.8 °C 7.2 °C 1010.7 hPa West 3.7 km/h 3.7 km/h 44 % 0.0 mm
13:52 19.7 °C 7.1 °C 1010.7 hPa ENE 5.0 km/h 5.0 km/h 44 % 0.0 mm
13:57 19.4 °C 7.2 °C 1010.7 hPa SSW 6.9 km/h 6.9 km/h 45 % 0.0 mm
14:02 19.4 °C 6.8 °C 1010.0 hPa WSW 5.8 km/h 5.8 km/h 44 % 0.0 mm
14:07 19.4 °C 6.8 °C 1010.0 hPa SSE 4.2 km/h 4.2 km/h 44 % 0.0 mm
14:12 19.4 °C 6.8 °C 1010.0 hPa SW 7.4 km/h 7.4 km/h 44 % 0.0 mm
14:22 19.9 °C 6.9 °C 1010.7 hPa WSW 9.7 km/h 9.7 km/h 43 % 0.0 mm
14:27 20.5 °C 7.5 °C 1010.7 hPa WSW 3.7 km/h 3.7 km/h 43 % 0.0 mm
14:32 20.6 °C 7.2 °C 1010.0 hPa SSW 7.4 km/h 7.4 km/h 42 % 0.0 mm
14:37 20.6 °C 7.2 °C 1010.0 hPa WNW 7.4 km/h 7.4 km/h 42 % 0.0 mm
14:42 20.6 °C 7.2 °C 1010.0 hPa SSE 5.6 km/h 5.6 km/h 42 % 0.0 mm
14:47 20.6 °C 7.2 °C 1010.0 hPa SW 9.3 km/h 9.3 km/h 42 % 0.0 mm
14:52 21.3 °C 7.2 °C 1010.0 hPa WSW 6.9 km/h 6.9 km/h 40 % 0.0 mm
14:57 21.6 °C 6.7 °C 1010.0 hPa SSW 18.5 km/h 18.5 km/h 38 % 0.0 mm
15:07 21.9 °C 6.6 °C 1010.0 hPa WSW 9.3 km/h 9.3 km/h 37 % 0.0 mm
15:12 22.3 °C 6.9 °C 1010.0 hPa SE 3.7 km/h 3.7 km/h 37 % 0.0 mm
15:17 22.2 °C 6.8 °C 1010.0 hPa South 11.1 km/h 11.1 km/h 37 % 0.0 mm
15:22 22.3 °C 6.5 °C 1010.0 hPa South 9.3 km/h 9.3 km/h 36 % 0.0 mm
15:27 22.2 °C 6.0 °C 1010.0 hPa WSW 18.5 km/h 18.5 km/h 35 % 0.0 mm
15:32 22.4 °C 6.2 °C 1009.0 hPa South 9.3 km/h 9.3 km/h 35 % 0.0 mm
15:37 22.4 °C 6.2 °C 1009.0 hPa SSE 9.3 km/h 9.3 km/h 35 % 0.0 mm
15:42 22.4 °C 6.6 °C 1009.0 hPa WSW 13.0 km/h 13.0 km/h 36 % 0.0 mm
15:47 22.3 °C 6.5 °C 1010.0 hPa WSW 16.4 km/h 16.4 km/h 36 % 0.0 mm
15:52 21.9 °C 6.6 °C 1010.0 hPa SW 16.7 km/h 16.7 km/h 37 % 0.0 mm
15:57 21.9 °C 6.6 °C 1010.0 hPa SSE 16.7 km/h 16.7 km/h 37 % 0.0 mm
16:02 21.6 °C 6.3 °C 1010.0 hPa SW 20.4 km/h 20.4 km/h 37 % 0.0 mm
16:07 21.5 °C 6.2 °C 1010.0 hPa SSW 18.5 km/h 18.5 km/h 37 % 0.0 mm
16:12 21.2 °C 5.9 °C 1010.0 hPa SW 14.8 km/h 14.8 km/h 37 % 0.0 mm
16:17 21.4 °C 5.7 °C 1010.0 hPa WSW 18.0 km/h 18.0 km/h 36 % 0.0 mm
16:22 21.2 °C 5.5 °C 1010.0 hPa West 12.6 km/h 12.6 km/h 36 % 0.0 mm
16:27 21.0 °C 5.3 °C 1010.0 hPa West 31.5 km/h 31.5 km/h 36 % 0.0 mm
16:32 21.4 °C 6.1 °C 1010.0 hPa SW 11.1 km/h 11.1 km/h 37 % 0.0 mm
16:37 20.7 °C 5.5 °C 1010.0 hPa West 25.9 km/h 25.9 km/h 37 % 0.0 mm
16:42 20.9 °C 5.7 °C 1010.0 hPa SW 13.0 km/h 13.0 km/h 37 % 0.0 mm
16:52 21.0 °C 5.3 °C 1010.0 hPa SW 14.8 km/h 14.8 km/h 36 % 0.0 mm
16:57 20.8 °C 5.2 °C 1010.0 hPa SW 19.5 km/h 19.5 km/h 36 % 0.0 mm
17:02 20.4 °C 4.8 °C 1010.0 hPa SW 15.6 km/h 15.6 km/h 36 % 0.0 mm
17:07 20.5 °C 5.3 °C 1010.0 hPa West 13.0 km/h 13.0 km/h 37 % 0.0 mm
17:17 20.6 °C 5.4 °C 1010.0 hPa SSW 11.1 km/h 11.1 km/h 37 % 0.0 mm
17:22 20.4 °C 5.2 °C 1010.0 hPa SSW 16.7 km/h 16.7 km/h 37 % 0.0 mm
17:27 20.1 °C 4.9 °C 1010.0 hPa SW 20.4 km/h 20.4 km/h 37 % 0.0 mm
17:32 19.9 °C 5.2 °C 1009.0 hPa WSW 20.4 km/h 20.4 km/h 38 % 0.0 mm
17:37 20.0 °C 4.8 °C 1009.0 hPa SSW 13.0 km/h 13.0 km/h 37 % 0.0 mm
17:42 20.0 °C 4.8 °C 1009.0 hPa SSW 9.3 km/h 9.3 km/h 37 % 0.0 mm
17:47 20.2 °C 5.1 °C 1010.7 hPa SW 19.5 km/h 19.5 km/h 37 % 0.0 mm
17:52 19.7 °C 4.6 °C 1010.7 hPa SW 16.7 km/h 16.7 km/h 37 % 0.0 mm
17:57 19.8 °C 5.1 °C 1010.7 hPa SSW 16.9 km/h 16.9 km/h 38 % 0.0 mm
18:02 19.4 °C 5.1 °C 1010.0 hPa WSW 14.8 km/h 14.8 km/h 39 % 0.0 mm
18:07 19.5 °C 5.2 °C 1010.0 hPa SW 13.0 km/h 13.0 km/h 39 % 0.0 mm
18:12 19.4 °C 5.4 °C 1010.0 hPa SW 14.8 km/h 14.8 km/h 40 % 0.0 mm
18:17 19.3 °C 5.3 °C 1010.0 hPa SW 14.8 km/h 14.8 km/h 40 % 0.0 mm
18:22 19.3 °C 5.7 °C 1010.0 hPa SW 13.0 km/h 13.0 km/h 41 % 0.0 mm
18:27 19.1 °C 5.9 °C 1010.0 hPa SW 16.7 km/h 16.7 km/h 42 % 0.0 mm
18:32 19.0 °C 5.8 °C 1010.0 hPa SSW 16.7 km/h 16.7 km/h 42 % 0.0 mm
18:37 19.0 °C 6.1 °C 1010.0 hPa South 14.8 km/h 14.8 km/h 43 % 0.0 mm
18:42 18.7 °C 6.2 °C 1010.0 hPa SSW 14.8 km/h 14.8 km/h 44 % 0.0 mm
18:47 19.0 °C 6.4 °C 1010.0 hPa WSW 7.9 km/h 9.0 km/h 44 % 0.0 mm
18:52 18.6 °C 6.4 °C 1010.0 hPa SW 22.2 km/h 22.2 km/h 45 % 0.0 mm
18:57 18.6 °C 6.4 °C 1010.0 hPa SSW 7.4 km/h 7.4 km/h 45 % 0.0 mm
19:02 18.6 °C 6.4 °C 1010.0 hPa SSW 5.8 km/h 5.8 km/h 45 % 0.0 mm
19:07 18.6 °C 6.4 °C 1010.0 hPa SSW 5.8 km/h 5.8 km/h 45 % 0.0 mm
19:10 12.4 °C 4.3 °C 1013.8 hPa WSW 4.8 km/h 4.8 km/h 58 % 0.0 mm
19:12 18.1 °C 5.9 °C 1010.0 hPa WSW 5.8 km/h 5.8 km/h 45 % 0.0 mm
19:17 17.8 °C 6.0 °C 1010.0 hPa WSW 9.7 km/h 9.7 km/h 46 % 0.0 mm
19:20 12.4 °C 4.3 °C 1013.8 hPa WSW 3.2 km/h 6.4 km/h 58 % 0.0 mm
19:22 17.7 °C 5.9 °C 1010.0 hPa SSW 10.0 km/h 10.0 km/h 46 % 0.0 mm
19:27 17.5 °C 6.1 °C 1010.0 hPa WSW 9.3 km/h 9.3 km/h 47 % 0.0 mm
19:30 12.4 °C 4.3 °C 1013.8 hPa WSW 3.2 km/h 4.8 km/h 58 % 0.0 mm
19:32 17.3 °C 5.9 °C 1010.0 hPa SW 9.3 km/h 9.7 km/h 47 % 0.0 mm
19:37 17.1 °C 6.0 °C 1010.0 hPa West 9.3 km/h 10.0 km/h 48 % 0.0 mm
19:40 12.3 °C 4.3 °C 1013.8 hPa WSW 3.2 km/h 4.8 km/h 58 % 0.0 mm
19:42 16.9 °C 6.4 °C 1010.0 hPa SSW 7.6 km/h 10.0 km/h 50 % 0.0 mm
19:47 16.7 °C 6.2 °C 1010.0 hPa SW 13.0 km/h 13.0 km/h 50 % 0.0 mm
19:50 12.2 °C 4.2 °C 1013.8 hPa WSW 3.2 km/h 4.8 km/h 58 % 0.0 mm
19:52 16.6 °C 6.1 °C 1010.0 hPa WSW 5.6 km/h 9.0 km/h 50 % 0.0 mm
19:57 16.5 °C 6.1 °C 1010.0 hPa SW 8.7 km/h 8.7 km/h 50 % 0.0 mm
20:00 12.2 °C 4.2 °C 1013.8 hPa WSW 3.2 km/h 4.8 km/h 58 % 0.0 mm
20:02 16.3 °C 6.1 °C 1009.0 hPa WSW 9.5 km/h 9.5 km/h 51 % 0.0 mm
20:07 16.2 °C 6.1 °C 1009.0 hPa WSW 9.3 km/h 9.3 km/h 51 % 0.0 mm
20:10 12.0 °C 4.2 °C 1013.8 hPa SW 3.2 km/h 4.8 km/h 59 % 0.0 mm
20:12 16.0 °C 6.2 °C 1009.0 hPa SW 9.3 km/h 9.3 km/h 52 % 0.0 mm
20:17 15.8 °C 5.9 °C 1010.7 hPa WSW 9.3 km/h 9.3 km/h 52 % 0.0 mm
20:20 12.0 °C 4.4 °C 1013.8 hPa SW 3.2 km/h 6.4 km/h 60 % 0.0 mm
20:22 15.6 °C 6.1 °C 1010.7 hPa WSW 9.3 km/h 9.3 km/h 53 % 0.0 mm
20:27 15.4 °C 5.9 °C 1010.7 hPa SW 13.0 km/h 13.0 km/h 53 % 0.0 mm
20:30 12.0 °C 4.4 °C 1013.8 hPa SW 3.2 km/h 4.8 km/h 60 % 0.0 mm
20:32 15.3 °C 6.1 °C 1010.7 hPa SW 10.0 km/h 10.0 km/h 54 % 0.0 mm
20:37 15.0 °C 6.0 °C 1010.7 hPa SW 9.3 km/h 9.3 km/h 55 % 0.0 mm
20:40 12.0 °C 4.7 °C 1013.8 hPa SW 3.2 km/h 4.8 km/h 61 % 0.0 mm
20:42 14.9 °C 6.2 °C 1010.7 hPa SW 9.5 km/h 9.5 km/h 56 % 0.0 mm
20:47 14.7 °C 6.0 °C 1010.7 hPa SW 11.1 km/h 11.1 km/h 56 % 0.0 mm
20:50 12.0 °C 4.7 °C 1013.8 hPa SW 1.6 km/h 3.2 km/h 61 % 0.0 mm
20:52 14.6 °C 5.7 °C 1010.7 hPa SSW 13.0 km/h 13.0 km/h 55 % 0.0 mm
20:57 14.5 °C 5.6 °C 1010.7 hPa SW 9.5 km/h 9.5 km/h 55 % 0.0 mm
21:00 11.7 °C 4.4 °C 1013.8 hPa WSW 1.6 km/h 3.2 km/h 61 % 0.0 mm
21:07 14.3 °C 4.8 °C 1010.7 hPa SW 7.4 km/h 7.4 km/h 53 % 0.0 mm
21:10 11.4 °C 4.4 °C 1013.8 hPa SW 3.2 km/h 3.2 km/h 62 % 0.0 mm
21:12 14.2 °C 4.7 °C 1010.7 hPa WSW 5.6 km/h 6.9 km/h 53 % 0.0 mm
21:17 14.1 °C 4.7 °C 1011.7 hPa SW 4.2 km/h 6.1 km/h 53 % 0.0 mm
21:20 11.2 °C 4.4 °C 1013.8 hPa SW 1.6 km/h 4.8 km/h 63 % 0.0 mm
21:22 14.0 °C 4.6 °C 1011.7 hPa SSW 14.8 km/h 14.8 km/h 53 % 0.0 mm
21:27 13.9 °C 4.4 °C 1011.7 hPa SW 9.3 km/h 9.3 km/h 53 % 0.0 mm
21:30 11.3 °C 4.7 °C 1013.8 hPa SW 3.2 km/h 3.2 km/h 64 % 0.0 mm
21:37 13.6 °C 4.2 °C 1011.7 hPa SW 9.3 km/h 9.3 km/h 53 % 0.0 mm
21:42 13.6 °C 4.2 °C 1011.7 hPa WSW 5.6 km/h 5.6 km/h 53 % 0.0 mm
21:47 13.5 °C 4.1 °C 1011.7 hPa West 5.6 km/h 5.6 km/h 53 % 0.0 mm
21:50 11.3 °C 5.2 °C 1013.8 hPa WSW 3.2 km/h 6.4 km/h 66 % 0.0 mm
21:52 13.5 °C 4.4 °C 1011.7 hPa West 5.6 km/h 5.6 km/h 54 % 0.0 mm
21:57 13.4 °C 4.3 °C 1011.7 hPa WSW 3.9 km/h 3.9 km/h 54 % 0.0 mm
22:00 11.3 °C 5.4 °C 1013.8 hPa WSW 4.8 km/h 4.8 km/h 67 % 0.0 mm
22:02 13.3 °C 4.2 °C 1011.7 hPa WSW 4.7 km/h 4.7 km/h 54 % 0.0 mm
22:07 13.1 °C 4.3 °C 1011.7 hPa SW 3.9 km/h 3.9 km/h 55 % 0.0 mm
22:10 11.4 °C 5.7 °C 1013.8 hPa WSW 3.2 km/h 4.8 km/h 68 % 0.0 mm
22:12 13.0 °C 4.2 °C 1011.7 hPa West 3.7 km/h 3.7 km/h 55 % 0.0 mm
22:20 11.4 °C 5.9 °C 1013.8 hPa WSW 3.2 km/h 4.8 km/h 69 % 0.0 mm
22:22 13.0 °C 4.2 °C 1011.7 hPa WSW 5.0 km/h 5.0 km/h 55 % 0.0 mm
22:27 12.9 °C 4.3 °C 1011.7 hPa WSW 5.8 km/h 5.8 km/h 56 % 0.0 mm
22:30 11.4 °C 5.9 °C 1013.8 hPa WSW 3.2 km/h 4.8 km/h 69 % 0.0 mm
22:32 12.7 °C 4.2 °C 1011.7 hPa West 6.4 km/h 6.4 km/h 56 % 0.0 mm
22:37 12.6 °C 4.3 °C 1011.7 hPa SW 5.6 km/h 5.6 km/h 57 % 0.0 mm
22:40 11.4 °C 5.9 °C 1013.8 hPa WSW 1.6 km/h 4.8 km/h 69 % 0.0 mm
22:42 12.6 °C 4.3 °C 1011.7 hPa WSW 5.6 km/h 5.6 km/h 57 % 0.0 mm
22:47 12.6 °C 4.3 °C 1012.8 hPa SW 4.7 km/h 5.0 km/h 57 % 0.0 mm
22:50 11.3 °C 6.0 °C 1013.8 hPa WSW 1.6 km/h 4.8 km/h 70 % 0.0 mm
22:52 12.5 °C 4.4 °C 1012.8 hPa WSW 6.1 km/h 6.1 km/h 58 % 0.0 mm
22:57 12.5 °C 4.4 °C 1012.8 hPa WSW 6.1 km/h 6.1 km/h 58 % 0.0 mm
23:00 11.2 °C 5.9 °C 1013.8 hPa Calm   3.2 km/h 70 % 0.0 mm
23:02 12.4 °C 4.6 °C 1011.7 hPa WSW 6.1 km/h 6.1 km/h 59 % 0.0 mm
23:07 12.3 °C 4.5 °C 1011.7 hPa WSW 6.1 km/h 6.1 km/h 59 % 0.0 mm
23:10 11.1 °C 6.1 °C 1013.8 hPa Calm   3.2 km/h 71 % 0.0 mm
23:12 12.3 °C 4.5 °C 1011.7 hPa WSW 3.7 km/h 3.9 km/h 59 % 0.0 mm
23:17 12.1 °C 4.3 °C 1012.8 hPa SW 4.2 km/h 4.2 km/h 59 % 0.0 mm
23:20 11.3 °C 6.4 °C 1013.8 hPa West 3.2 km/h 4.8 km/h 72 % 0.0 mm
23:22 12.1 °C 4.3 °C 1012.8 hPa SW 4.2 km/h 4.2 km/h 59 % 0.0 mm
23:27 12.0 °C 4.2 °C 1012.8 hPa SW 4.2 km/h 4.2 km/h 59 % 0.0 mm
23:30 11.3 °C 6.6 °C 1013.8 hPa WSW 3.2 km/h 4.8 km/h 73 % 0.0 mm
23:32 12.0 °C 4.2 °C 1012.8 hPa SW 4.2 km/h 4.2 km/h 59 % 0.0 mm
23:37 12.1 °C 4.3 °C 1012.8 hPa WSW 4.7 km/h 4.7 km/h 59 % 0.0 mm
23:40 11.2 °C 6.6 °C 1013.8 hPa WSW 3.2 km/h 4.8 km/h 73 % 0.0 mm
23:42 12.2 °C 4.4 °C 1012.8 hPa WSW 5.6 km/h 5.6 km/h 59 % 0.0 mm
23:47 12.1 °C 4.3 °C 1012.8 hPa SW 5.6 km/h 5.6 km/h 59 % 0.0 mm
23:50 11.3 °C 6.8 °C 1013.8 hPa West 3.2 km/h 4.8 km/h 74 % 0.0 mm
23:57 12.2 °C 4.4 °C 1012.8 hPa WSW 5.6 km/h 5.6 km/h 59 % 0.0 mm
Meteo Sesrovires
Elogis d' Weather Underground - 3.5 mb

Guio original per  Jim McMurry - jmcmurry@mwt.net Adaptat per a la plantilla per  Wim van der Kuil - Leuven-Template.eu

Trobareu la nostra informacio del temps tambe a:

Weather Underground

AWEKAS